Silver Lake, WI

11:49 PM CDT on August 30, 2016 (GMT -0500)
Prangeway2 | | Change Station

Elev 745 ft 42.51 °N, 88.18 °W | Updated 23 seconds ago

Clear
Clear
70.0 °F
Feels Like 70.0 °F
N
0.0
Wind Variable Wind from NNW
Gusts 0.0 mph

Today
High -- | Low -- °F
--% Chance of Precip.
Yesterday
High -- | Low -- °F
Precip. -- in
Pressure 30.07 in
Visibility 5.0 miles
Clouds Clear
Dew Point 69 °F
Humidity 98%
Rainfall 0.01 in
Snow Depth Not available.
6:16 AM 7:29 PM
Waning Crescent, 1% visible
METAR KBUU 310435Z AUTO 00000KT 5SM BR CLR 19/18 A3007 RMK AO2 T01850183
Pressure 30.07 in
Visibility 5.0 miles
Clouds Clear
Dew Point 69 °F
Humidity 98%
Rainfall 0.01 in
Snow Depth Not available.
6:16 AM 7:29 PM
Waning Crescent, 1% visible
METAR KBUU 310435Z AUTO 00000KT 5SM BR CLR 19/18 A3007 RMK AO2 T01850183

10-Day Weather Forecast

Almanac

Astronomy

Aug. 30, 2016 Rise Set
Actual Time
Civil Twilight
Nautical Twilight
Astronomical Twilight
Moon
Length of Visible Light
Length of Day
Tomorrow will be .
, % of the Moon is Illuminated

Today's Extremes

State Highs State Lows

Community

WunderPhotos

Upload Photos

1,936,039 photos uploaded!

WunderBlog® & News

Nearby

Air Quality

  Air Quality AQ Index Pollutant
Not available.

Snow Depth

Station Depth Elevation

Earthquake Activity

City Distance Mag. Time & Date
Minimum magnitude displayed is 2.5.

Coastal Water Temperatures

Place Temperature

Stations

Nearby Weather Stations

Station Location Temp. Windchill Dew Point Humidity Wind Precip. Elev Updated Type
                   

Watches & Warnings

There are currently no watches in effect.